Anadarko, OK

7:41 AM CDT on August 20, 2014 (GMT -0500)
Peck's country | Change Station
CLOSE
Current Station
Personal Weather Station
Location: Anadarko, OK
Elevation: 1255 ft
Nearby Weather Stations

Elev 1255 ft 35.10 °N, 98.32 °W | Updated 1 minute ago

Mostly Cloudy
Mostly Cloudy
75.7 °F
Feels Like 77 °F
N
6.0
Wind Variable Wind from SSE
Gusts 13.0 mph

Today
High -- | Low -- °F
--% Chance of Precip.
Yesterday
High -- | Low -- °F
Precip. -- in
6:56 AM 8:15 PM
Waning Crescent, 22% visible
Pressure 29.90 in
Visibility 10.0 miles
Clouds Mostly Cloudy 8000 ft
Heat Index 77 °F
Dew Point 67 °F
Humidity 75%
Rainfall 0.00 in
Snow Depth Not available.
UV 0 out of 12
Pollen 9.70 out of 12
Air Quality Not available.
Flu Activity Not available.
METAR KCHK 201235Z AUTO 15007KT 10SM BKN080 23/20 A2990 RMK AO2

More Conditions Fewer Conditions

Pressure 29.90 in
Visibility 10.0 miles
Clouds Mostly Cloudy 8000 ft
Heat Index 77 °F
Dew Point 67 °F
Humidity 75%
Rainfall 0.00 in
Snow Depth Not available.
UV 0 out of 12
Pollen 9.70 out of 12
Air Quality Not available.
Flu Activity Not available.
METAR KCHK 201235Z AUTO 15007KT 10SM BKN080 23/20 A2990 RMK AO2

More Conditions Fewer Conditions

10-Day Weather Forecast

Almanac

Astronomy

Aug. 20, 2014 Rise Set
Actual Time 6:56 AM CDT 8:15 PM CDT
Civil Twilight 6:30 AM CDT 8:41 PM CDT
Nautical Twilight 5:58 AM CDT 9:13 PM CDT
Astronomical Twilight 5:25 AM CDT 9:46 PM CDT
Moon 2:41 AM CDT 4:57 PM CDT
Length of Visible Light 14h 11m
Length of Day
13h 18m
Tomorrow will be 1m 59s shorter.
Waning Crescent, 22% of the Moon is Illuminated
Today
Waning Crescent
Aug 25
New
Sep 2
First Quarter
Sep 8
Full
Sep 15
Last Quarter

Today's Extremes

State Highs State Lows

Community

WunderPhotos

Upload Photos

1,745,618 photos uploaded!

Nearby

Snow Depth

Station Depth Elevation
No new snow has been reported.

Earthquake Activity

City Distance Mag. Time & Date
Medford, Oklahoma 124 miles 3.4 5:54 AM CDT
2014-08-16
Medford, Oklahoma 123 miles 2.5 7:09 AM CDT
2014-08-15
Langston, Oklahoma 82 miles 2.9 9:49 PM CDT
2014-08-14
Perry, Oklahoma 108 miles 2.7 6:20 PM CDT
2014-08-14
Minimum magnitude displayed is 2.5.

Coastal Water Temperatures

Place Temperature
No Stations Reporting

Nearby Weather Stations